»·PEaware :: ACA572 CYVR-KLAX

ACA572 :: CYVR-KLAX

FLIGHT INFORMATION

Flight Status: Arrived
Operator:
Air Canada
More flights by this operator :: More flights under this callsign
Pilot: Max H. (24278)
Aircraft: AIRBUS A320
(A320)
More flights by this aircraft type
Origin: CYVR Vancouver Intl
Canada
Destination: KLAX Los Angeles Intl
United States
More flights between these airports :: More routes between these airports
Route: SEA J5 SUMMA FRA J7 REBRG IRNMN2
File this flight plan on PilotEdge
Remarks:
Altitude:
(Current/Filed)
35,000ft
Speed:
(Current/Filed)
350kts
Departed: 12-May-19 01:15 PM
Arrived: 12-May-19 03:44 PM
Distance/Time
Traveled:
939nm/2:28
Distance/Time
To Go:
Arrived

Flight Plot

Page will automatically refresh every two minutes.


Map Options




Map Legend


Flown Route
Filed Route
Departure Airport
Arrival Airport
Navaid (VOR, NDB)
Fix

Horizontal Profiles

Position Reports

Time Latitude Longitude Heading Altitude Ground
Speed
12-May-19 12:37 49.195299 -123.181871 196 28ft 0kts
12-May-19 12:38 49.195299 -123.181871 196 28ft 0kts
12-May-19 12:39 49.195299 -123.181871 196 28ft 0kts
12-May-19 12:40 49.195299 -123.181871 196 28ft 0kts
12-May-19 12:41 49.195299 -123.181871 196 28ft 0kts
12-May-19 12:42 49.195299 -123.181871 196 28ft 0kts
12-May-19 12:43 49.195299 -123.181871 196 28ft 0kts
12-May-19 12:44 49.195299 -123.181871 196 28ft 0kts
12-May-19 12:45 49.195299 -123.181871 196 28ft 0kts
12-May-19 12:46 49.195299 -123.181871 196 28ft 0kts
12-May-19 12:47 49.195299 -123.181871 196 28ft 0kts
12-May-19 12:48 49.195299 -123.181871 196 28ft 0kts
12-May-19 12:49 49.195299 -123.181871 196 28ft 0kts
12-May-19 12:50 49.195299 -123.181871 196 28ft 0kts
12-May-19 12:51 49.195299 -123.181871 196 28ft 0kts
12-May-19 12:52 49.195299 -123.181871 196 28ft 0kts
12-May-19 12:53 49.195299 -123.181871 196 28ft 0kts
12-May-19 12:54 49.195299 -123.181871 196 28ft 0kts
12-May-19 12:55 49.195299 -123.181871 196 28ft 0kts
12-May-19 12:56 49.195299 -123.181871 196 28ft 0kts
12-May-19 12:57 49.195299 -123.181871 196 28ft 0kts
12-May-19 12:58 49.195299 -123.181871 196 28ft 0kts
12-May-19 12:59 49.195299 -123.181871 196 28ft 0kts
12-May-19 13:00 49.195299 -123.181871 196 28ft 0kts
12-May-19 13:01 49.195299 -123.181871 196 28ft 0kts
12-May-19 13:02 49.195299 -123.181871 196 28ft 0kts
12-May-19 13:03 49.195299 -123.181871 196 28ft 0kts
12-May-19 13:04 49.195465 -123.181793 199 28ft 2kts
12-May-19 13:05 49.195801 -123.181319 327 28ft 2kts
12-May-19 13:06 49.195553 -123.181076 327 28ft 0kts
12-May-19 13:07 49.195553 -123.181076 327 28ft 0kts
12-May-19 13:08 49.195578 -123.181100 327 28ft 3kts
12-May-19 13:09 49.197196 -123.185569 258 28ft 12kts
12-May-19 13:10 49.194394 -123.186598 191 28ft 10kts
12-May-19 13:11 49.194781 -123.190772 318 28ft 17kts
12-May-19 13:12 49.199794 -123.196922 291 28ft 22kts
12-May-19 13:13 49.199931 -123.200349 231 28ft 2kts
12-May-19 13:14 49.195509 -123.195623 142 28ft 100kts
12-May-19 13:15 49.162252 -123.154540 141 1490ft 181kts
12-May-19 13:16 49.107286 -123.122432 162 3066ft 244kts
12-May-19 13:17 49.038307 -123.087526 162 5865ft 269kts
12-May-19 13:18 48.965358 -123.050861 162 8755ft 284kts
12-May-19 13:19 48.886378 -123.011546 164 10824ft 324kts
12-May-19 13:20 48.795017 -122.966291 164 12821ft 356kts
12-May-19 13:21 48.699380 -122.918793 165 15226ft 366kts
12-May-19 13:22 48.601314 -122.870644 165 17345ft 376kts
12-May-19 13:23 48.500368 -122.820925 165 19285ft 385kts
12-May-19 13:24 48.397054 -122.770505 166 20985ft 396kts
12-May-19 13:25 48.291202 -122.718916 166 22553ft 404kts
12-May-19 13:26 48.182705 -122.666453 166 23966ft 413kts
12-May-19 13:27 48.072424 -122.613226 166 25264ft 421kts
12-May-19 13:28 47.960021 -122.559125 166 26477ft 427kts
12-May-19 13:29 47.846289 -122.504753 167 27594ft 433kts
12-May-19 13:30 47.730820 -122.449878 167 28595ft 439kts
12-May-19 13:31 47.613669 -122.394352 167 29503ft 444kts
12-May-19 13:32 47.495942 -122.338931 167 30628ft 442kts
12-May-19 13:33 47.378647 -122.287520 170 31742ft 437kts
12-May-19 13:35 47.261753 -122.241170 170 32773ft 433kts
12-May-19 13:36 47.145774 -122.195356 170 33688ft 430kts
12-May-19 13:37 47.030706 -122.150121 170 34475ft 428kts
12-May-19 13:38 46.915897 -122.105061 170 35071ft 425kts
12-May-19 13:39 46.801500 -122.060331 170 35065ft 425kts
12-May-19 13:40 46.687103 -122.015905 170 35062ft 426kts
12-May-19 13:41 46.572138 -121.974920 173 35004ft 425kts
12-May-19 13:42 46.456117 -121.941173 173 35008ft 426kts
12-May-19 13:43 46.339761 -121.907040 173 35068ft 426kts
12-May-19 13:44 46.223688 -121.873263 173 35055ft 426kts
12-May-19 13:45 46.107606 -121.839557 173 35038ft 425kts
12-May-19 13:46 45.991748 -121.806364 173 34997ft 425kts
12-May-19 13:47 45.875457 -121.773057 173 34969ft 425kts
12-May-19 13:48 45.759320 -121.739676 173 34948ft 426kts
12-May-19 13:49 45.642957 -121.706710 173 34936ft 426kts
12-May-19 13:50 45.526491 -121.673748 173 34951ft 427kts
12-May-19 13:51 45.409882 -121.640977 173 34962ft 427kts
12-May-19 13:52 45.293093 -121.608020 173 34943ft 428kts
12-May-19 13:53 45.176255 -121.575255 173 34959ft 428kts
12-May-19 13:54 45.059222 -121.542792 172 34948ft 429kts
12-May-19 13:55 44.941867 -121.510354 172 34956ft 429kts
12-May-19 13:56 44.824625 -121.477919 172 34993ft 429kts
12-May-19 13:57 44.707236 -121.445579 172 34988ft 429kts
12-May-19 13:57 44.609388 -121.418642 172 34978ft 430kts
12-May-19 13:59 44.472657 -121.381433 172 34978ft 430kts
12-May-19 14:00 44.355428 -121.349663 172 34985ft 430kts
12-May-19 14:00 44.257504 -121.323361 172 34980ft 429kts
12-May-19 14:02 44.120621 -121.286030 172 34972ft 430kts
12-May-19 14:02 44.022581 -121.259952 172 34968ft 429kts
12-May-19 14:04 43.885391 -121.223343 172 34950ft 431kts
12-May-19 14:04 43.787226 -121.196990 171 34983ft 431kts
12-May-19 14:05 43.669465 -121.165972 172 35012ft 431kts
12-May-19 14:07 43.531778 -121.129399 172 34997ft 432kts
12-May-19 14:07 43.433191 -121.103408 171 34983ft 432kts
12-May-19 14:08 43.315166 -121.072579 172 34984ft 432kts
12-May-19 14:09 43.197079 -121.041617 171 34992ft 433kts
12-May-19 14:10 43.078507 -121.010826 172 35016ft 433kts
12-May-19 14:11 42.959828 -120.980234 171 35008ft 434kts
12-May-19 14:12 42.841461 -120.949685 171 35020ft 434kts
12-May-19 14:13 42.722909 -120.919024 172 35013ft 434kts
12-May-19 14:14 42.604197 -120.888813 171 35033ft 434kts
12-May-19 14:15 42.485170 -120.858571 171 35035ft 434kts
12-May-19 14:16 42.366493 -120.828159 171 35027ft 435kts
12-May-19 14:17 42.247561 -120.798143 171 35035ft 435kts
12-May-19 14:18 42.128346 -120.767939 171 35044ft 436kts
12-May-19 14:19 42.008931 -120.738078 171 35049ft 436kts
12-May-19 14:20 41.889487 -120.708319 171 35026ft 437kts
12-May-19 14:21 41.769986 -120.678316 171 35019ft 438kts
12-May-19 14:22 41.650109 -120.648620 171 35019ft 438kts
12-May-19 14:23 41.530288 -120.619071 171 35017ft 438kts
12-May-19 14:24 41.410438 -120.589377 171 35018ft 438kts
12-May-19 14:25 41.290178 -120.560186 170 35018ft 439kts
12-May-19 14:26 41.169931 -120.530722 170 35017ft 439kts
12-May-19 14:27 41.049638 -120.501435 170 35017ft 440kts
12-May-19 14:28 40.929318 -120.472213 170 35017ft 440kts
12-May-19 14:29 40.808637 -120.443068 170 35018ft 441kts
12-May-19 14:30 40.687994 -120.414025 170 35017ft 442kts
12-May-19 14:31 40.566827 -120.384873 170 35016ft 443kts
12-May-19 14:32 40.445330 -120.355831 170 35016ft 443kts
12-May-19 14:33 40.324090 -120.326808 170 35018ft 444kts
12-May-19 14:34 40.202022 -120.297875 169 35031ft 445kts
12-May-19 14:35 40.080085 -120.268969 169 35038ft 445kts
12-May-19 14:36 39.958328 -120.240269 169 35066ft 445kts
12-May-19 14:37 39.835998 -120.211499 169 35091ft 446kts
12-May-19 14:38 39.713895 -120.182848 169 35108ft 446kts
12-May-19 14:39 39.591668 -120.154485 169 35125ft 446kts
12-May-19 14:40 39.469554 -120.125996 169 35133ft 446kts
12-May-19 14:41 39.347299 -120.097684 169 35132ft 446kts
12-May-19 14:42 39.225348 -120.069526 170 35131ft 446kts
12-May-19 14:43 39.102716 -120.041355 169 35108ft 447kts
12-May-19 14:44 38.980000 -120.013254 169 35129ft 447kts
12-May-19 14:45 38.857461 -119.985267 169 35142ft 448kts
12-May-19 14:46 38.734543 -119.957342 169 35128ft 449kts
12-May-19 14:47 38.611208 -119.929361 169 35113ft 450kts
12-May-19 14:48 38.488118 -119.901552 169 35097ft 450kts
12-May-19 14:49 38.364854 -119.873824 169 35081ft 449kts
12-May-19 14:50 38.241960 -119.846233 169 35068ft 450kts
12-May-19 14:51 38.118287 -119.818611 169 35064ft 451kts
12-May-19 14:52 37.994700 -119.791048 169 35056ft 450kts
12-May-19 14:53 37.871240 -119.763634 169 35034ft 450kts
12-May-19 14:54 37.747717 -119.736395 169 35037ft 450kts
12-May-19 14:55 37.624215 -119.709075 169 35030ft 451kts
12-May-19 14:56 37.500826 -119.682022 169 35023ft 450kts
12-May-19 14:57 37.377810 -119.655022 169 35018ft 450kts
12-May-19 14:58 37.254247 -119.628153 169 35021ft 448kts
12-May-19 14:59 37.131672 -119.601459 169 34960ft 448kts
12-May-19 15:00 37.006911 -119.596791 181 34944ft 449kts
12-May-19 15:01 36.881911 -119.599302 180 34959ft 448kts
12-May-19 15:02 36.757380 -119.601464 180 34943ft 448kts
12-May-19 15:03 36.632817 -119.603542 180 34936ft 447kts
12-May-19 15:04 36.508732 -119.605706 180 34930ft 447kts
12-May-19 15:05 36.384157 -119.607823 180 34935ft 447kts
12-May-19 15:06 36.259935 -119.609946 180 34925ft 447kts
12-May-19 15:07 36.135368 -119.612070 180 34927ft 447kts
12-May-19 15:08 36.010956 -119.614204 180 34926ft 447kts
12-May-19 15:09 35.890428 -119.648082 198 34920ft 447kts
12-May-19 15:10 35.771559 -119.693431 196 34922ft 447kts
12-May-19 15:11 35.652236 -119.736255 192 34926ft 447kts
12-May-19 15:12 35.529824 -119.765547 191 34919ft 448kts
12-May-19 15:13 35.408383 -119.795241 191 34535ft 437kts
12-May-19 15:14 35.289769 -119.810254 166 33542ft 428kts
12-May-19 15:15 35.191674 -119.733970 139 32570ft 420kts
12-May-19 15:16 35.099270 -119.647492 141 31004ft 418kts
12-May-19 15:17 35.006712 -119.561297 141 29062ft 420kts
12-May-19 15:18 34.914767 -119.476147 141 27082ft 408kts
12-May-19 15:19 34.824548 -119.395454 142 25141ft 395kts
12-May-19 15:20 34.737922 -119.317918 141 23328ft 380kts
12-May-19 15:21 34.653993 -119.244906 142 21685ft 363kts
12-May-19 15:22 34.573655 -119.175490 142 20122ft 346kts
12-May-19 15:23 34.497095 -119.107911 141 18631ft 337kts
12-May-19 15:24 34.421720 -119.041380 142 17212ft 332kts
12-May-19 15:25 34.347601 -118.977468 142 16062ft 322kts
12-May-19 15:26 34.276583 -118.913278 140 14568ft 317kts
12-May-19 15:27 34.207048 -118.849602 140 13135ft 308kts
12-May-19 15:28 34.140702 -118.785098 135 11720ft 305kts
12-May-19 15:29 34.077997 -118.716303 136 10277ft 303kts
12-May-19 15:30 34.026036 -118.643475 98 9158ft 279kts
12-May-19 15:31 34.019190 -118.550209 96 7986ft 272kts
12-May-19 15:32 34.010579 -118.460372 90 6985ft 254kts
12-May-19 15:33 34.022664 -118.385392 78 6424ft 211kts
12-May-19 15:34 34.031536 -118.315359 82 5984ft 211kts
12-May-19 15:35 34.038621 -118.245553 82 5276ft 208kts
12-May-19 15:36 34.045573 -118.176270 85 4169ft 207kts
12-May-19 15:37 34.008841 -118.142923 208 3118ft 200kts
12-May-19 15:38 33.980171 -118.196678 247 2955ft 173kts
12-May-19 15:39 33.967664 -118.251372 261 2003ft 164kts
12-May-19 15:40 33.962048 -118.306123 268 1901ft 164kts
12-May-19 15:41 33.957352 -118.353244 265 970ft 130kts
12-May-19 15:42 33.953036 -118.394751 265 332ft 131kts
12-May-19 15:43 33.949758 -118.425182 254 140ft 36kts
12-May-19 15:44 33.948163 -118.427110 218 140ft 6kts
12-May-19 15:45 33.946542 -118.427588 159 140ft 4kts
12-May-19 15:46 33.946959 -118.422631 82 140ft 27kts
12-May-19 15:47 33.948029 -118.412487 83 140ft 13kts
12-May-19 15:48 33.947457 -118.409213 99 140ft 11kts
12-May-19 15:49 33.946347 -118.408223 79 140ft 0kts
12-May-19 15:50 33.946347 -118.408223 79 140ft 0kts

Navigation Log

Ident Type
Flight plan parsing failed, navigation log unavailable